createdAt,value
2023-03-27T00:01:34.229Z,7.46
2023-03-27T00:04:02.232Z,7.54
2023-03-27T00:06:30.356Z,7.64
2023-03-27T00:08:58.293Z,7.81
2023-03-27T00:11:26.564Z,7.90
2023-03-27T00:13:54.921Z,7.88
2023-03-27T00:16:26.742Z,7.87
2023-03-27T00:18:55.547Z,7.89
2023-03-27T00:21:24.313Z,7.81
2023-03-27T00:23:52.360Z,7.85
2023-03-27T00:26:21.511Z,7.83
2023-03-27T00:28:49.858Z,7.91
2023-03-27T00:31:18.071Z,7.98
2023-03-27T00:33:47.430Z,8.01
2023-03-27T00:36:15.438Z,8.04
2023-03-27T00:38:45.856Z,7.99
2023-03-27T00:41:14.119Z,7.94
2023-03-27T00:43:44.206Z,7.90
2023-03-27T00:46:31.492Z,7.84
2023-03-27T00:49:06.377Z,7.81
2023-03-27T00:51:36.672Z,7.83
2023-03-27T00:54:06.230Z,7.81
2023-03-27T00:56:38.682Z,7.73
2023-03-27T00:59:09.453Z,7.73
2023-03-27T01:01:37.722Z,7.70
2023-03-27T01:04:09.008Z,7.67
2023-03-27T01:06:39.685Z,7.46
2023-03-27T01:09:09.327Z,7.30
2023-03-27T01:11:53.043Z,7.34
2023-03-27T01:14:31.647Z,7.40
2023-03-27T01:17:11.345Z,7.18
2023-03-27T01:20:13.552Z,6.84
2023-03-27T01:23:11.501Z,6.84
2023-03-27T01:26:09.016Z,6.83
2023-03-27T01:28:47.516Z,6.79
2023-03-27T01:31:30.281Z,6.76
2023-03-27T01:34:42.664Z,6.86
2023-03-27T01:37:29.223Z,6.90
2023-03-27T01:40:06.100Z,6.86
2023-03-27T01:42:39.677Z,6.73
2023-03-27T01:45:14.113Z,6.71
2023-03-27T01:47:47.511Z,6.76
2023-03-27T01:50:23.454Z,6.75
2023-03-27T01:52:57.284Z,6.81
2023-03-27T01:55:31.533Z,6.75
2023-03-27T01:58:05.059Z,6.70
2023-03-27T02:01:04.023Z,6.67
2023-03-27T02:03:28.627Z,6.55
2023-03-27T02:06:01.129Z,6.52
2023-03-27T02:08:35.211Z,6.58
2023-03-27T02:11:25.700Z,6.80
2023-03-27T02:13:58.925Z,6.92
2023-03-27T02:16:33.979Z,6.89
2023-03-27T02:19:06.067Z,6.95
2023-03-27T02:21:34.172Z,6.97
2023-03-27T02:24:06.329Z,7.12
2023-03-27T02:26:36.388Z,7.18
2023-03-27T02:29:36.284Z,7.19
2023-03-27T02:32:19.150Z,7.20
2023-03-27T02:35:13.791Z,7.20
2023-03-27T02:37:53.258Z,7.30
2023-03-27T02:40:48.707Z,7.23
2023-03-27T02:43:49.646Z,7.15
2023-03-27T02:46:30.690Z,7.00
2023-03-27T02:49:04.552Z,6.86
2023-03-27T02:51:36.421Z,6.92
2023-03-27T02:54:08.362Z,6.99
2023-03-27T02:56:41.699Z,7.05
2023-03-27T02:59:14.401Z,6.82
2023-03-27T03:01:45.517Z,6.56
2023-03-27T03:04:23.713Z,6.51
2023-03-27T03:07:11.549Z,6.70
2023-03-27T03:09:41.324Z,6.82
2023-03-27T03:12:10.219Z,6.92
2023-03-27T03:14:48.501Z,7.03
2023-03-27T03:17:17.444Z,7.02
2023-03-27T03:19:46.766Z,7.03
2023-03-27T03:22:15.824Z,7.14
2023-03-27T03:24:43.917Z,7.21
2023-03-27T03:27:15.764Z,7.21
2023-03-27T03:29:56.818Z,7.19
2023-03-27T03:32:30.306Z,7.17
2023-03-27T03:35:01.769Z,7.14
2023-03-27T03:37:38.779Z,7.16
2023-03-27T03:40:12.045Z,7.16
2023-03-27T03:42:47.078Z,7.08
2023-03-27T03:45:17.439Z,7.15
2023-03-27T03:47:47.372Z,7.21
2023-03-27T03:50:15.506Z,7.06
2023-03-27T03:52:44.016Z,6.94
2023-03-27T03:55:12.970Z,6.99
2023-03-27T03:57:41.943Z,7.01
2023-03-27T04:00:18.801Z,7.03
2023-03-27T04:02:53.373Z,7.18
2023-03-27T04:05:22.078Z,7.20
2023-03-27T04:07:53.199Z,7.10
2023-03-27T04:10:21.127Z,6.95
2023-03-27T04:12:50.184Z,6.93
2023-03-27T04:15:34.577Z,6.95
2023-03-27T04:18:15.224Z,6.89
2023-03-27T04:20:43.788Z,6.91
2023-03-27T04:23:14.197Z,6.89
2023-03-27T04:25:42.613Z,6.89
2023-03-27T04:28:16.779Z,6.82
2023-03-27T04:30:50.617Z,6.62
2023-03-27T04:33:39.786Z,6.54
2023-03-27T04:36:46.224Z,6.62
2023-03-27T04:39:21.648Z,6.77
2023-03-27T04:41:50.072Z,6.93
2023-03-27T04:44:18.634Z,6.97
2023-03-27T04:46:49.286Z,6.98
2023-03-27T04:49:19.210Z,6.99
2023-03-27T04:51:56.499Z,6.95
2023-03-27T04:54:27.806Z,6.99
2023-03-27T04:56:55.817Z,7.12
2023-03-27T04:59:24.179Z,7.12
2023-03-27T05:02:13.424Z,7.14
2023-03-27T05:05:04.761Z,7.22
2023-03-27T05:07:36.039Z,7.33
2023-03-27T05:10:06.967Z,7.34
2023-03-27T05:12:35.765Z,7.33
2023-03-27T05:15:06.327Z,7.38
2023-03-27T05:17:43.569Z,7.34
2023-03-27T05:20:14.593Z,7.24
2023-03-27T05:22:43.124Z,7.03
2023-03-27T05:25:22.329Z,6.88
2023-03-27T05:27:51.265Z,6.87
2023-03-27T05:30:20.960Z,6.66
2023-03-27T05:32:54.610Z,6.65
2023-03-27T05:35:29.067Z,6.54
2023-03-27T05:37:59.153Z,6.42
2023-03-27T05:40:47.351Z,6.41
2023-03-27T05:43:18.174Z,6.58
2023-03-27T05:45:46.330Z,6.69
2023-03-27T05:48:15.815Z,6.74
2023-03-27T05:50:43.719Z,6.74
2023-03-27T05:53:20.061Z,6.68
2023-03-27T05:56:17.011Z,6.64
2023-03-27T05:59:05.865Z,6.64
2023-03-27T06:01:36.571Z,6.78
2023-03-27T06:04:06.166Z,6.81
2023-03-27T06:07:02.447Z,6.81
2023-03-27T06:09:32.661Z,6.80
2023-03-27T06:12:20.961Z,6.91
2023-03-27T06:14:52.963Z,6.85
2023-03-27T06:17:32.166Z,6.77
2023-03-27T06:20:12.571Z,6.75
2023-03-27T06:22:45.270Z,6.67
2023-03-27T06:25:14.794Z,6.65
2023-03-27T06:27:43.564Z,6.68
2023-03-27T06:30:13.033Z,6.68
2023-03-27T06:32:46.739Z,6.64
2023-03-27T06:35:18.526Z,6.77
2023-03-27T06:37:56.650Z,6.89
2023-03-27T06:40:28.343Z,6.80
2023-03-27T06:43:02.151Z,6.81
2023-03-27T06:45:38.723Z,6.72
2023-03-27T06:48:29.399Z,6.81
2023-03-27T06:51:00.152Z,7.01
2023-03-27T06:53:31.141Z,7.18
2023-03-27T06:56:02.592Z,7.28
2023-03-27T06:58:44.134Z,7.36
2023-03-27T07:01:12.662Z,7.46
2023-03-27T07:03:59.522Z,7.44
2023-03-27T07:06:48.902Z,7.29
2023-03-27T07:09:17.083Z,7.20
2023-03-27T07:11:55.299Z,7.18
2023-03-27T07:14:24.255Z,7.29
2023-03-27T07:16:52.242Z,7.14
2023-03-27T07:19:20.792Z,7.03
2023-03-27T07:21:59.536Z,6.86
2023-03-27T07:24:27.431Z,6.81
2023-03-27T07:26:55.427Z,6.82
2023-03-27T07:29:29.095Z,6.70
2023-03-27T07:32:00.474Z,6.71
2023-03-27T07:34:35.926Z,6.85
2023-03-27T07:37:14.511Z,6.92
2023-03-27T07:39:58.645Z,6.90
2023-03-27T07:42:28.303Z,7.03
2023-03-27T07:45:04.157Z,7.12
2023-03-27T07:47:33.010Z,7.16
2023-03-27T07:50:01.330Z,7.05
2023-03-27T07:52:30.692Z,6.95
2023-03-27T07:55:01.758Z,6.87
2023-03-27T07:57:58.035Z,6.90
2023-03-27T08:00:28.530Z,7.00
2023-03-27T08:03:11.619Z,7.00
2023-03-27T08:05:44.580Z,6.95
2023-03-27T08:08:17.057Z,7.09
2023-03-27T08:11:09.636Z,7.24
2023-03-27T08:13:41.580Z,7.44
2023-03-27T08:16:12.465Z,7.65
2023-03-27T08:18:40.742Z,7.82
2023-03-27T08:21:10.432Z,7.91
2023-03-27T08:23:41.293Z,8.07
2023-03-27T08:26:09.314Z,8.17
2023-03-27T08:28:47.871Z,8.12
2023-03-27T08:31:18.504Z,8.21
2023-03-27T08:33:46.962Z,8.26
2023-03-27T08:36:23.149Z,8.19
2023-03-27T08:38:55.408Z,8.24
2023-03-27T08:41:34.456Z,8.24
2023-03-27T08:44:14.840Z,8.42
2023-03-27T08:46:48.988Z,8.65
2023-03-27T08:49:18.573Z,8.39
2023-03-27T08:52:09.100Z,8.30
2023-03-27T08:54:41.487Z,8.38
2023-03-27T08:57:19.729Z,8.48
2023-03-27T08:59:50.394Z,8.36
2023-03-27T09:02:29.805Z,8.02
2023-03-27T09:05:04.981Z,7.56
2023-03-27T09:07:42.905Z,7.37
2023-03-27T09:10:30.135Z,7.36
2023-03-27T09:13:08.085Z,7.21
2023-03-27T09:15:42.182Z,7.21
2023-03-27T09:18:18.136Z,7.01
2023-03-27T09:20:51.569Z,7.24
2023-03-27T09:23:27.156Z,7.59
2023-03-27T09:26:19.500Z,7.61
2023-03-27T09:29:22.273Z,7.67
2023-03-27T09:32:15.650Z,7.48
2023-03-27T09:34:45.261Z,7.21
2023-03-27T09:37:17.521Z,6.94
2023-03-27T09:39:51.129Z,6.80
2023-03-27T09:42:31.690Z,6.93
2023-03-27T09:45:03.884Z,7.15
2023-03-27T09:47:39.854Z,7.31
2023-03-27T09:50:27.401Z,7.46
2023-03-27T09:53:10.456Z,7.65
2023-03-27T09:55:58.668Z,8.08
2023-03-27T09:58:36.986Z,8.30
2023-03-27T10:01:13.386Z,8.19
2023-03-27T10:03:49.805Z,8.37
2023-03-27T10:06:27.252Z,8.43
2023-03-27T10:09:20.725Z,8.60
2023-03-27T10:11:50.514Z,8.76
2023-03-27T10:14:34.636Z,8.80
2023-03-27T10:17:03.243Z,8.84
2023-03-27T10:19:35.751Z,8.79
2023-03-27T10:22:18.522Z,8.66
2023-03-27T10:24:48.784Z,8.76
2023-03-27T10:27:27.712Z,8.84
2023-03-27T10:30:30.460Z,8.36
2023-03-27T10:33:31.019Z,7.53
2023-03-27T10:36:13.040Z,7.02
2023-03-27T10:38:43.548Z,6.69
2023-03-27T10:41:30.736Z,6.52
2023-03-27T10:44:01.864Z,6.52
2023-03-27T10:46:32.191Z,6.78
2023-03-27T10:49:22.283Z,6.74
2023-03-27T10:51:52.693Z,6.91
2023-03-27T10:54:40.161Z,7.09
2023-03-27T10:57:16.211Z,6.95
2023-03-27T10:59:48.897Z,6.98
2023-03-27T11:02:30.757Z,6.95
2023-03-27T11:05:04.272Z,6.89
2023-03-27T11:07:39.338Z,7.11
2023-03-27T11:10:17.847Z,7.12
2023-03-27T11:12:52.131Z,7.32
2023-03-27T11:15:23.090Z,7.41
2023-03-27T11:18:01.721Z,7.42
2023-03-27T11:20:47.358Z,7.34
2023-03-27T11:23:35.000Z,7.44
2023-03-27T11:26:25.297Z,7.00
2023-03-27T11:29:02.016Z,6.97
2023-03-27T11:31:46.179Z,7.01
2023-03-27T11:34:28.766Z,7.19
2023-03-27T11:37:07.664Z,7.24
2023-03-27T11:39:46.771Z,7.19
2023-03-27T11:42:20.091Z,7.03
2023-03-27T11:44:49.882Z,6.80
2023-03-27T11:47:34.780Z,6.61
2023-03-27T11:50:23.456Z,6.73
2023-03-27T11:53:09.016Z,6.66
2023-03-27T11:56:24.800Z,6.85
2023-03-27T11:59:15.255Z,7.02
2023-03-27T12:01:59.420Z,7.08
2023-03-27T12:04:42.354Z,7.36
2023-03-27T12:07:42.144Z,7.26
2023-03-27T12:10:29.021Z,7.40
2023-03-27T12:13:41.215Z,7.42
2023-03-27T12:16:42.322Z,7.42
2023-03-27T12:19:34.134Z,7.19
2023-03-27T12:22:38.585Z,6.95
2023-03-27T12:25:36.296Z,6.74
2023-03-27T12:28:57.628Z,6.80
2023-03-27T12:32:01.582Z,6.85
2023-03-27T12:34:50.165Z,7.00
2023-03-27T12:37:22.228Z,7.09
2023-03-27T12:39:54.966Z,7.11
2023-03-27T12:42:44.924Z,7.24
2023-03-27T12:45:19.632Z,7.12
2023-03-27T12:48:17.721Z,7.24
2023-03-27T12:50:58.098Z,7.11
2023-03-27T12:53:50.520Z,7.11
2023-03-27T12:56:27.400Z,7.31
2023-03-27T12:58:57.733Z,7.48
2023-03-27T13:02:13.338Z,7.32
2023-03-27T13:05:33.688Z,7.28
2023-03-27T13:08:32.214Z,7.16
2023-03-27T13:11:22.668Z,7.20
2023-03-27T13:14:30.937Z,7.46
2023-03-27T13:17:16.152Z,7.38
2023-03-27T13:19:59.241Z,7.24
2023-03-27T13:22:41.580Z,7.29
2023-03-27T13:25:31.620Z,7.28
2023-03-27T13:28:28.542Z,7.47
2023-03-27T13:31:50.424Z,7.54
2023-03-27T13:34:38.347Z,7.47
2023-03-27T13:37:53.701Z,7.59
2023-03-27T13:40:32.224Z,7.64
2023-03-27T13:43:22.636Z,7.79
2023-03-27T13:45:59.998Z,7.81
2023-03-27T13:49:21.088Z,7.71
2023-03-27T13:52:27.653Z,7.72
2023-03-27T13:55:23.043Z,7.48
2023-03-27T13:58:36.692Z,7.48
2023-03-27T14:01:22.132Z,7.57
2023-03-27T14:04:14.225Z,7.63
2023-03-27T14:07:06.545Z,7.60
2023-03-27T14:09:51.697Z,7.63
2023-03-27T14:12:38.036Z,7.61
2023-03-27T14:15:33.937Z,7.64
2023-03-27T14:19:24.314Z,7.61
2023-03-27T14:21:59.394Z,7.64
2023-03-27T14:24:34.717Z,7.53
2023-03-27T14:27:15.974Z,7.37
2023-03-27T14:29:45.144Z,7.32
2023-03-27T14:32:18.015Z,7.22
2023-03-27T14:34:54.946Z,7.34
2023-03-27T14:37:39.035Z,7.33
2023-03-27T14:40:33.330Z,7.33
2023-03-27T14:43:08.302Z,7.26
2023-03-27T14:45:40.306Z,7.41
2023-03-27T14:48:19.863Z,7.45
2023-03-27T14:50:50.275Z,7.40
2023-03-27T14:53:26.294Z,7.53
2023-03-27T14:56:12.920Z,7.53
2023-03-27T14:59:01.190Z,7.60
2023-03-27T15:01:40.160Z,7.68
2023-03-27T15:04:11.221Z,7.72
2023-03-27T15:06:41.476Z,7.68
2023-03-27T15:09:15.604Z,7.68
2023-03-27T15:12:18.618Z,7.67
2023-03-27T15:14:49.673Z,7.73
2023-03-27T15:17:20.076Z,7.71
2023-03-27T15:19:51.025Z,7.70
2023-03-27T15:22:24.479Z,7.73
2023-03-27T15:24:56.029Z,7.73
2023-03-27T15:27:29.580Z,7.60
2023-03-27T15:30:01.378Z,7.56
2023-03-27T15:32:42.552Z,7.62
2023-03-27T15:35:15.755Z,7.70
2023-03-27T15:37:43.986Z,7.64
2023-03-27T15:40:36.722Z,7.71
2023-03-27T15:43:07.841Z,7.67
2023-03-27T15:45:40.368Z,7.65
2023-03-27T15:48:19.762Z,7.69
2023-03-27T15:50:56.478Z,7.65
2023-03-27T15:53:39.662Z,7.79
2023-03-27T15:56:16.086Z,7.79
2023-03-27T15:58:48.135Z,7.73
2023-03-27T16:01:21.684Z,7.73
2023-03-27T16:03:51.659Z,7.82
2023-03-27T16:06:31.796Z,7.86
2023-03-27T16:08:59.947Z,7.88
2023-03-27T16:11:37.748Z,7.77
2023-03-27T16:14:05.874Z,7.75
2023-03-27T16:16:35.367Z,7.72
2023-03-27T16:19:11.361Z,7.61
2023-03-27T16:21:39.768Z,7.65
2023-03-27T16:24:08.337Z,7.60
2023-03-27T16:26:36.256Z,7.57
2023-03-27T16:29:06.208Z,7.50
2023-03-27T16:31:35.639Z,7.52
2023-03-27T16:34:10.482Z,7.47
2023-03-27T16:36:38.638Z,7.47
2023-03-27T16:39:07.215Z,7.49
2023-03-27T16:41:35.240Z,7.50
2023-03-27T16:44:03.462Z,7.44
2023-03-27T16:46:32.824Z,7.50
2023-03-27T16:49:02.120Z,7.63
2023-03-27T16:51:31.105Z,7.64
2023-03-27T16:53:59.357Z,7.65
2023-03-27T16:56:27.315Z,7.60
2023-03-27T16:58:55.559Z,7.57
2023-03-27T17:01:23.940Z,7.50
2023-03-27T17:03:52.016Z,7.42
2023-03-27T17:06:22.753Z,7.45
2023-03-27T17:08:55.332Z,7.52
2023-03-27T17:11:23.986Z,7.55
2023-03-27T17:13:52.711Z,7.59
2023-03-27T17:16:20.785Z,7.55
2023-03-27T17:18:48.818Z,7.45
2023-03-27T17:21:16.724Z,7.42
2023-03-27T17:23:48.339Z,7.43
2023-03-27T17:26:23.021Z,7.41
2023-03-27T17:28:50.974Z,7.34
2023-03-27T17:31:19.008Z,7.41
2023-03-27T17:33:46.986Z,7.40
2023-03-27T17:36:21.649Z,7.10
2023-03-27T17:38:56.224Z,7.12
2023-03-27T17:41:24.503Z,7.09
2023-03-27T17:43:52.407Z,7.17
2023-03-27T17:46:20.365Z,7.10
2023-03-27T17:48:49.375Z,7.08
2023-03-27T17:51:17.335Z,7.11
2023-03-27T17:53:45.912Z,7.09
2023-03-27T17:56:15.240Z,6.72
2023-03-27T17:58:43.874Z,6.85
2023-03-27T18:01:17.070Z,6.63
2023-03-27T18:03:45.307Z,6.35
2023-03-27T18:06:13.741Z,6.38
2023-03-27T18:08:42.121Z,6.31
2023-03-27T18:11:10.708Z,6.37
2023-03-27T18:13:40.359Z,6.42
2023-03-27T18:16:10.641Z,6.45
2023-03-27T18:18:39.040Z,6.54
2023-03-27T18:21:08.862Z,6.37
2023-03-27T18:23:45.747Z,6.44
2023-03-27T18:26:15.601Z,6.40
2023-03-27T18:28:45.119Z,6.41
2023-03-27T18:31:13.823Z,6.35
2023-03-27T18:33:41.823Z,6.45
2023-03-27T18:36:11.978Z,6.50
2023-03-27T18:38:40.947Z,6.48
2023-03-27T18:41:09.515Z,6.33
2023-03-27T18:43:37.642Z,6.11
2023-03-27T18:46:08.316Z,5.95
2023-03-27T18:48:36.533Z,5.84
2023-03-27T18:51:06.573Z,5.86
2023-03-27T18:53:34.600Z,5.81
2023-03-27T18:56:03.417Z,5.76
2023-03-27T18:58:31.436Z,5.76
2023-03-27T19:01:00.033Z,5.71
2023-03-27T19:03:34.947Z,5.66
2023-03-27T19:06:05.591Z,5.54
2023-03-27T19:08:37.423Z,5.50
2023-03-27T19:11:05.828Z,5.61
2023-03-27T19:13:52.206Z,5.48
2023-03-27T19:16:44.621Z,5.26
2023-03-27T19:19:40.378Z,5.21
2023-03-27T19:22:31.223Z,5.19
2023-03-27T19:25:07.649Z,5.22
2023-03-27T19:27:38.889Z,5.20
2023-03-27T19:30:09.270Z,5.22
2023-03-27T19:32:37.300Z,5.23
2023-03-27T19:35:07.623Z,5.22
2023-03-27T19:37:36.819Z,5.22
2023-03-27T19:40:06.044Z,5.24
2023-03-27T19:42:34.161Z,5.15
2023-03-27T19:45:02.102Z,5.28
2023-03-27T19:47:30.039Z,5.29
2023-03-27T19:49:58.823Z,5.15
2023-03-27T19:52:57.205Z,5.05
2023-03-27T19:55:29.394Z,4.90
2023-03-27T19:57:57.447Z,4.87
2023-03-27T20:00:25.416Z,4.80
2023-03-27T20:02:53.862Z,4.83
2023-03-27T20:05:22.184Z,4.87
2023-03-27T20:07:51.610Z,4.99
2023-03-27T20:10:21.409Z,5.00
2023-03-27T20:12:49.535Z,4.99
2023-03-27T20:15:17.617Z,5.01
2023-03-27T20:17:45.591Z,4.96
2023-03-27T20:20:13.713Z,4.95
2023-03-27T20:22:57.124Z,4.86
2023-03-27T20:25:29.909Z,4.80
2023-03-27T20:27:57.812Z,4.79
2023-03-27T20:30:26.305Z,4.74
2023-03-27T20:32:54.676Z,4.71
2023-03-27T20:35:24.801Z,4.70
2023-03-27T20:37:57.823Z,4.70
2023-03-27T20:40:32.941Z,4.71
2023-03-27T20:43:07.628Z,4.67
2023-03-27T20:45:42.927Z,4.63
2023-03-27T20:48:14.842Z,4.59
2023-03-27T20:50:49.147Z,4.66
2023-03-27T20:53:18.957Z,4.67
2023-03-27T20:55:59.275Z,4.60
2023-03-27T20:58:29.229Z,4.53
2023-03-27T21:00:57.234Z,4.59
2023-03-27T21:03:25.331Z,4.33
2023-03-27T21:05:53.295Z,4.27
2023-03-27T21:08:21.423Z,4.21
2023-03-27T21:10:55.552Z,4.14
2023-03-27T21:13:23.518Z,4.16
2023-03-27T21:15:51.423Z,4.28
2023-03-27T21:18:19.689Z,4.26
2023-03-27T21:20:47.630Z,4.29
2023-03-27T21:23:15.620Z,4.34
2023-03-27T21:25:45.444Z,4.32
2023-03-27T21:28:14.809Z,4.28
2023-03-27T21:30:47.340Z,4.31
2023-03-27T21:33:17.406Z,4.33
2023-03-27T21:35:47.429Z,4.41
2023-03-27T21:38:16.463Z,4.51
2023-03-27T21:40:46.198Z,4.48
2023-03-27T21:43:15.813Z,4.55
2023-03-27T21:45:44.389Z,4.53
2023-03-27T21:48:12.501Z,4.49
2023-03-27T21:50:40.453Z,4.42
2023-03-27T21:53:08.387Z,4.48
2023-03-27T21:55:37.439Z,4.46
2023-03-27T21:58:05.722Z,4.42
2023-03-27T22:00:35.447Z,4.43
2023-03-27T22:03:03.460Z,4.50
2023-03-27T22:05:31.398Z,4.45
2023-03-27T22:07:59.347Z,4.25
2023-03-27T22:10:27.324Z,4.24
2023-03-27T22:12:55.268Z,4.16
2023-03-27T22:15:23.156Z,4.04
2023-03-27T22:17:52.615Z,3.94
2023-03-27T22:20:21.048Z,3.64
2023-03-27T22:22:49.549Z,3.56
2023-03-27T22:25:17.647Z,3.54
2023-03-27T22:27:46.451Z,3.60
2023-03-27T22:30:15.798Z,3.71
2023-03-27T22:32:44.471Z,3.78
2023-03-27T22:35:13.778Z,3.91
2023-03-27T22:37:41.960Z,3.97
2023-03-27T22:40:10.558Z,3.99
2023-03-27T22:42:38.482Z,4.00
2023-03-27T22:45:07.453Z,4.05
2023-03-27T22:47:35.876Z,3.98
2023-03-27T22:50:06.449Z,3.96
2023-03-27T22:52:35.767Z,3.96
2023-03-27T22:55:03.721Z,4.00
2023-03-27T22:57:31.654Z,4.10
2023-03-27T22:59:59.552Z,4.14
2023-03-27T23:02:27.651Z,4.17
2023-03-27T23:04:55.614Z,4.22
2023-03-27T23:07:23.530Z,4.24
2023-03-27T23:09:53.007Z,4.29
2023-03-27T23:12:20.924Z,4.29
2023-03-27T23:14:48.866Z,4.19
2023-03-27T23:17:16.846Z,4.16
2023-03-27T23:19:44.765Z,4.08
2023-03-27T23:22:12.693Z,4.02
2023-03-27T23:24:40.571Z,3.97
2023-03-27T23:27:09.878Z,3.87
2023-03-27T23:29:37.797Z,3.85
2023-03-27T23:32:06.280Z,3.71
2023-03-27T23:34:34.290Z,3.63
2023-03-27T23:37:02.196Z,3.31
2023-03-27T23:39:30.128Z,3.26
2023-03-27T23:41:58.007Z,3.37
2023-03-27T23:44:27.345Z,3.36
2023-03-27T23:46:55.302Z,3.41
2023-03-27T23:49:23.226Z,3.47
2023-03-27T23:51:51.138Z,3.48
2023-03-27T23:54:19.068Z,3.56
2023-03-27T23:56:47.018Z,3.62
2023-03-27T23:59:15.035Z,3.62
